Time;durP1;ratioP1;P1;durP2;ratioP2;P2;SDS_P1;SDS_P2;PMS_P1;PMS_P2;Temp;Humidity;BMP_temperature;BMP_pressure;BME280_temperature;BME280_humidity;BME280_pressure;Samples;Min_cycle;Max_cycle;Signal;HPM_P1;HPM_P2
2022/10/02 00:02:07;;;;;;;10.10;8.00;;;;;;;10.71;90.16;99665.03;88591;1304;22225;-77
2022/10/02 00:04:16;;;;;;;11.50;8.40;;;;;;;10.71;90.22;99664.34;88806;1296;22743;-77
2022/10/02 00:06:24;;;;;;;8.10;7.20;;;;;;;10.71;90.30;99663.81;88803;1296;22038;-77
2022/10/02 00:08:31;;;;;;;8.90;7.80;;;;;;;10.69;90.26;99666.85;88766;1296;22054;-77
2022/10/02 00:10:38;;;;;;;10.40;8.10;;;;;;;10.70;90.38;99662.48;88573;1304;22035;-77
2022/10/02 00:12:44;;;;;;;9.20;7.20;;;;;;;10.69;90.44;99660.20;88561;1304;22648;-77
2022/10/02 00:14:51;;;;;;;8.90;8.00;;;;;;;10.70;90.42;99664.89;88784;1296;22029;-77
2022/10/02 00:16:59;;;;;;;8.90;8.00;;;;;;;10.71;90.58;99662.94;88804;1283;22590;-77
2022/10/02 00:19:04;;;;;;;9.10;8.10;;;;;;;10.71;90.44;99667.61;88541;1304;22638;-77
2022/10/02 00:21:15;;;;;;;7.90;7.10;;;;;;;10.71;90.45;99665.73;88496;1298;22171;-77
2022/10/02 00:23:23;;;;;;;8.50;7.50;;;;;;;10.71;90.56;99669.72;88570;1304;22099;-77
2022/10/02 00:25:32;;;;;;;7.70;7.00;;;;;;;10.72;90.58;99669.87;88549;1304;22054;-77
2022/10/02 00:27:45;;;;;;;9.20;6.70;;;;;;;10.71;90.73;99672.33;88549;1298;22103;-77
2022/10/02 00:29:52;;;;;;;9.90;7.30;;;;;;;10.71;90.57;99673.40;88797;1296;22016;-78
2022/10/02 00:32:16;;;;;;;10.50;6.70;;;;;;;10.70;90.61;99670.11;88553;1304;22771;-77
2022/10/02 00:34:26;;;;;;;7.70;7.00;;;;;;;10.70;90.76;99669.09;88754;1287;22713;-77
2022/10/02 00:36:41;;;;;;;8.20;7.40;;;;;;;10.70;90.77;99671.52;88781;1283;22038;-77
2022/10/02 00:38:52;;;;;;;7.90;7.10;;;;;;;10.69;90.81;99672.42;88564;1304;22406;-77
2022/10/02 00:41:18;;;;;;;7.40;6.70;;;;;;;10.69;90.77;99671.05;88572;1304;22085;-77
2022/10/02 00:43:29;;;;;;;8.90;7.30;;;;;;;10.69;90.82;99675.91;88775;1284;22062;-77
2022/10/02 00:46:04;;;;;;;7.90;7.00;;;;;;;10.69;90.93;99675.42;88583;1304;22076;-78
2022/10/02 00:48:21;;;;;;;8.60;7.20;;;;;;;10.68;90.97;99679.13;88570;1304;22509;-78
2022/10/02 00:50:35;;;;;;;8.30;7.20;;;;;;;10.68;91.03;99678.59;88506;1306;22089;-78
2022/10/02 00:52:52;;;;;;;8.20;7.50;;;;;;;10.69;91.02;99682.91;88544;1298;22076;-78
2022/10/02 00:55:15;;;;;;;8.40;7.00;;;;;;;10.69;91.04;99681.89;88487;1305;22670;-78
2022/10/02 00:57:29;;;;;;;10.10;8.10;;;;;;;10.67;91.15;99685.60;88809;1296;22620;-77
2022/10/02 00:59:53;;;;;;;8.10;7.30;;;;;;;10.67;91.18;99683.35;88794;1284;22052;-77
2022/10/02 01:02:02;;;;;;;9.40;7.80;;;;;;;10.67;91.01;99679.72;88793;1296;22032;-77
2022/10/02 01:04:10;;;;;;;7.70;6.80;;;;;;;10.67;91.16;99680.72;88778;1296;22088;-77
2022/10/02 01:06:16;;;;;;;9.30;7.40;;;;;;;10.67;91.26;99679.54;88798;1296;22624;-77
2022/10/02 01:08:21;;;;;;;8.60;7.70;;;;;;;10.67;91.18;99685.09;88734;1287;22056;-77
2022/10/02 01:10:27;;;;;;;8.10;7.30;;;;;;;10.67;91.25;99684.75;88548;1304;22061;-77
2022/10/02 01:12:33;;;;;;;8.90;8.10;;;;;;;10.67;91.22;99688.77;88793;1296;22593;-77
2022/10/02 01:14:39;;;;;;;9.00;8.00;;;;;;;10.67;91.30;99687.20;88569;1304;22054;-77
2022/10/02 01:16:45;;;;;;;8.30;7.40;;;;;;;10.66;91.46;99686.19;88572;1298;22067;-77
2022/10/02 01:18:51;;;;;;;9.40;7.90;;;;;;;10.67;91.45;99688.78;88566;1304;22065;-77
2022/10/02 01:20:59;;;;;;;9.50;8.40;;;;;;;10.67;91.55;99689.27;88799;1296;22134;-77
2022/10/02 01:23:19;;;;;;;9.90;7.80;;;;;;;10.68;91.50;99687.33;88808;1296;22083;-77
2022/10/02 01:25:24;;;;;;;;;;;;;;;10.68;91.58;99688.69;88796;1294;22212;-77
2022/10/02 01:27:30;;;;;;;9.10;7.60;;;;;;;10.65;91.65;99690.27;88548;1299;22093;-77
2022/10/02 01:29:35;;;;;;;10.00;8.80;;;;;;;10.66;91.66;99690.71;88790;1294;22102;-77
2022/10/02 01:31:42;;;;;;;9.60;8.10;;;;;;;10.67;91.79;99693.66;88567;1298;22102;-77
2022/10/02 01:33:48;;;;;;;10.60;9.30;;;;;;;10.67;91.80;99696.11;88547;1305;22258;-77
2022/10/02 01:35:53;;;;;;;11.60;9.40;;;;;;;10.66;91.82;99696.33;88796;1284;22044;-77
2022/10/02 01:37:59;;;;;;;9.60;8.60;;;;;;;10.66;91.78;99699.29;88581;1298;22071;-78
2022/10/02 01:40:10;;;;;;;10.50;9.20;;;;;;;10.66;91.79;99699.82;88818;1296;22039;-78
2022/10/02 01:42:16;;;;;;;9.60;8.00;;;;;;;10.66;91.79;99702.94;88578;1298;22143;-78
2022/10/02 01:44:21;;;;;;;11.50;8.50;;;;;;;10.66;91.90;99702.42;88776;1293;22053;-78
2022/10/02 01:46:34;;;;;;;10.30;9.30;;;;;;;10.66;91.91;99707.85;88588;1304;22083;-77
2022/10/02 01:48:45;;;;;;;10.50;9.50;;;;;;;10.66;91.93;99705.03;88564;1304;22132;-77
2022/10/02 01:51:00;;;;;;;10.10;8.50;;;;;;;10.66;91.99;99704.71;88798;1296;22028;-77
2022/10/02 01:53:10;;;;;;;12.00;8.70;;;;;;;10.65;91.88;99706.49;88781;1284;22175;-77
2022/10/02 01:55:27;;;;;;;11.80;9.70;;;;;;;10.63;91.84;99709.38;88803;1296;22094;-77
2022/10/02 01:57:42;;;;;;;10.70;9.60;;;;;;;10.60;91.67;99710.40;88798;1285;22036;-77
2022/10/02 01:59:52;;;;;;;9.80;8.90;;;;;;;10.55;91.72;99717.06;88732;1289;22084;-77
2022/10/02 02:02:07;;;;;;;9.70;8.80;;;;;;;10.52;91.59;99718.64;88834;1284;22056;-77
2022/10/02 02:04:21;;;;;;;10.40;9.10;;;;;;;10.50;91.85;99720.13;88549;1289;22075;-77
2022/10/02 02:06:29;;;;;;;9.90;9.00;;;;;;;10.50;91.84;99724.48;88821;1296;22057;-77
2022/10/02 02:08:37;;;;;;;9.70;8.70;;;;;;;10.50;92.20;99729.91;88560;1306;22063;-77
2022/10/02 02:10:48;;;;;;;11.10;9.10;;;;;;;10.49;92.02;99728.17;88787;1296;22062;-77
2022/10/02 02:12:57;;;;;;;9.40;8.40;;;;;;;10.47;91.98;99732.98;88796;1296;22084;-77
2022/10/02 02:15:04;;;;;;;10.20;9.20;;;;;;;10.45;92.03;99732.22;88565;1299;22159;-77
2022/10/02 02:17:12;;;;;;;10.00;8.80;;;;;;;10.45;92.20;99738.52;88799;1296;22660;-77
2022/10/02 02:19:20;;;;;;;12.90;10.30;;;;;;;10.44;92.31;99738.02;88756;1298;22088;-77
2022/10/02 02:21:29;;;;;;;11.60;10.40;;;;;;;10.45;92.42;99737.98;88808;1284;22029;-77
2022/10/02 02:23:35;;;;;;;10.80;9.80;;;;;;;10.47;92.34;99741.91;88558;1298;22073;-77
2022/10/02 02:25:44;;;;;;;10.30;9.40;;;;;;;10.47;92.41;99743.44;88511;1305;22134;-77
2022/10/02 02:27:51;;;;;;;11.70;10.50;;;;;;;10.48;92.47;99743.41;88803;1287;22830;-77
2022/10/02 02:29:59;;;;;;;11.60;9.80;;;;;;;10.48;92.49;99745.50;88741;1299;22743;-77
2022/10/02 02:32:06;;;;;;;11.60;10.10;;;;;;;10.45;92.45;99740.41;88742;1299;22701;-77
2022/10/02 02:34:14;;;;;;;11.50;9.20;;;;;;;10.41;92.13;99746.18;88556;1298;22076;-77
2022/10/02 02:36:20;;;;;;;9.50;8.50;;;;;;;10.36;91.93;99748.17;88761;1299;22137;-77
2022/10/02 02:38:29;;;;;;;11.20;9.40;;;;;;;10.31;92.07;99752.75;88576;1304;22079;-77
2022/10/02 02:40:37;;;;;;;10.90;9.30;;;;;;;10.27;92.22;99754.29;88746;1287;22070;-77
2022/10/02 02:42:48;;;;;;;10.40;9.30;;;;;;;10.24;92.22;99753.94;88556;1304;22123;-77
2022/10/02 02:44:56;;;;;;;9.70;8.70;;;;;;;10.21;92.28;99754.95;88814;1293;22031;-77
2022/10/02 02:47:04;;;;;;;10.60;9.60;;;;;;;10.19;92.34;99752.94;88806;1296;22633;-77
2022/10/02 02:49:10;;;;;;;10.90;9.70;;;;;;;10.19;92.46;99750.69;88553;1304;22094;-77
2022/10/02 02:51:17;;;;;;;12.90;10.10;;;;;;;10.18;92.59;99749.86;88566;1306;22118;-77
2022/10/02 02:53:25;;;;;;;13.80;11.00;;;;;;;10.18;92.76;99748.27;88803;1284;22067;-77
2022/10/02 02:55:33;;;;;;;14.50;10.80;;;;;;;10.19;92.82;99744.91;88796;1296;22696;-77
2022/10/02 02:57:42;;;;;;;12.60;11.40;;;;;;;10.19;92.85;99738.97;88796;1286;22030;-77
2022/10/02 02:59:48;;;;;;;12.60;11.40;;;;;;;10.18;92.92;99738.66;88802;1286;21953;-77
2022/10/02 03:01:54;;;;;;;12.30;11.00;;;;;;;10.16;92.92;99740.50;88816;1296;22051;-76
2022/10/02 03:03:59;;;;;;;12.90;11.40;;;;;;;10.15;92.90;99742.33;88772;1296;22005;-76
2022/10/02 03:06:25;;;;;;;13.50;12.20;;;;;;;10.13;92.83;99753.02;88796;1284;22232;-76
2022/10/02 03:08:35;;;;;;;12.40;11.10;;;;;;;10.12;92.98;99763.37;88548;1298;22613;-76
2022/10/02 03:10:48;;;;;;;12.70;11.50;;;;;;;10.13;93.16;99763.48;88799;1283;22689;-76
2022/10/02 03:12:59;;;;;;;13.90;12.00;;;;;;;10.15;93.43;99758.18;88806;1284;22629;-76
2022/10/02 03:15:25;;;;;;;13.60;10.90;;;;;;;10.18;93.52;99759.09;88832;1279;22183;-76
2022/10/02 03:17:42;;;;;;;13.60;12.30;;;;;;;10.19;93.46;99755.54;88551;1304;22049;-76
2022/10/02 03:19:51;;;;;;;14.30;12.50;;;;;;;10.21;93.61;99758.58;88541;1298;22045;-76
2022/10/02 03:22:02;;;;;;;13.80;12.50;;;;;;;10.23;93.66;99761.27;88562;1298;22643;-77
2022/10/02 03:24:11;;;;;;;14.30;12.90;;;;;;;10.25;93.67;99757.73;88786;1296;22683;-77
2022/10/02 03:26:19;;;;;;;12.90;11.60;;;;;;;10.23;93.55;99754.11;88826;1287;22045;-77
2022/10/02 03:28:27;;;;;;;17.00;13.60;;;;;;;10.22;93.54;99754.71;88587;1304;22156;-77
2022/10/02 03:30:34;;;;;;;13.80;12.40;;;;;;;10.22;93.63;99756.08;88816;1296;22020;-77
2022/10/02 03:32:43;;;;;;;14.30;13.00;;;;;;;10.23;93.69;99757.96;88571;1305;22021;-77
2022/10/02 03:34:49;;;;;;;14.30;12.70;;;;;;;10.25;93.88;99758.64;88560;1298;22089;-77
2022/10/02 03:36:54;;;;;;;14.40;12.90;;;;;;;10.27;93.93;99759.23;88829;1284;22019;-77
2022/10/02 03:39:01;;;;;;;14.60;12.80;;;;;;;10.28;94.09;99760.53;88700;1299;22066;-77
2022/10/02 03:41:07;;;;;;;15.50;13.00;;;;;;;10.30;94.12;99761.34;88819;1294;22217;-77
2022/10/02 03:43:16;;;;;;;15.40;13.80;;;;;;;10.32;94.07;99762.45;88804;1275;22065;-77
2022/10/02 03:45:22;;;;;;;13.80;12.60;;;;;;;10.34;94.10;99760.27;88819;1296;22049;-77
2022/10/02 03:47:27;;;;;;;16.00;14.40;;;;;;;10.37;94.28;99762.97;88547;1304;22063;-77
2022/10/02 03:49:33;;;;;;;15.20;13.30;;;;;;;10.38;94.29;99765.33;88792;1296;22046;-77
2022/10/02 03:51:39;;;;;;;16.90;14.00;;;;;;;10.40;94.27;99772.73;88561;1290;22049;-77
2022/10/02 03:53:45;;;;;;;13.80;12.50;;;;;;;10.42;94.30;99769.30;88541;1306;22753;-77
2022/10/02 03:55:53;;;;;;;14.60;13.20;;;;;;;10.44;94.33;99767.16;88550;1304;22084;-77
2022/10/02 03:57:59;;;;;;;15.90;12.00;;;;;;;10.45;94.35;99765.16;88810;1284;22094;-77
2022/10/02 04:00:08;;;;;;;13.40;12.10;;;;;;;10.47;94.43;99769.27;88747;1299;22628;-77
2022/10/02 04:02:24;;;;;;;13.80;12.60;;;;;;;10.49;94.31;99767.09;88804;1296;22213;-77
2022/10/02 04:04:35;;;;;;;13.50;12.20;;;;;;;10.50;94.35;99767.92;88817;1285;22039;-77
2022/10/02 04:06:45;;;;;;;15.10;12.90;;;;;;;10.51;94.37;99771.70;88779;1295;22632;-76
2022/10/02 04:08:55;;;;;;;14.20;12.90;;;;;;;10.52;94.42;99769.89;88807;1287;22043;-76
2022/10/02 04:11:04;;;;;;;;;;;;;;;10.54;94.32;99772.42;88572;1295;22666;-76
2022/10/02 04:13:13;;;;;;;12.60;10.90;;;;;;;10.52;94.63;99771.27;88569;1304;22100;-76
2022/10/02 04:15:22;;;;;;;13.20;12.00;;;;;;;10.54;94.45;99773.98;88575;1298;22044;-77
2022/10/02 04:17:31;;;;;;;13.30;12.00;;;;;;;10.55;94.45;99777.61;88714;1297;22750;-77
2022/10/02 04:19:40;;;;;;;13.00;11.80;;;;;;;10.56;94.36;99774.27;88798;1296;22083;-77
2022/10/02 04:21:51;;;;;;;12.90;11.70;;;;;;;10.57;94.51;99781.34;88850;1296;22059;-77
2022/10/02 04:23:59;;;;;;;14.50;13.00;;;;;;;10.59;94.54;99777.27;88596;1304;22146;-77
2022/10/02 04:26:10;;;;;;;13.40;12.20;;;;;;;10.60;94.45;99778.08;88566;1304;22130;-76
2022/10/02 04:28:18;;;;;;;14.60;13.30;;;;;;;10.62;94.49;99785.67;88551;1298;22779;-77
2022/10/02 04:30:24;;;;;;;14.40;13.10;;;;;;;10.63;94.68;99782.65;88563;1305;22079;-77
2022/10/02 04:32:32;;;;;;;15.10;13.60;;;;;;;10.63;94.62;99784.55;88560;1299;22046;-77
2022/10/02 04:34:38;;;;;;;14.50;13.10;;;;;;;10.64;94.65;99784.69;88733;1299;22169;-77
2022/10/02 04:37:02;;;;;;;13.90;12.50;;;;;;;10.63;94.56;99785.92;88776;1296;22005;-77
2022/10/02 04:39:21;;;;;;;12.50;11.20;;;;;;;10.64;94.57;99787.66;88802;1296;22048;-77
2022/10/02 04:42:07;;;;;;;21.10;12.70;;;;;;;10.63;94.60;99789.25;88738;1299;22710;-77
2022/10/02 04:44:24;;;;;;;15.40;12.20;;;;;;;10.63;94.66;99783.86;88790;1296;22069;-77
2022/10/02 04:46:47;;;;;;;13.80;12.40;;;;;;;10.64;94.74;99786.77;88537;1305;22109;-77
2022/10/02 04:49:26;;;;;;;13.90;12.70;;;;;;;10.66;94.87;99791.77;88806;1296;22095;-77
2022/10/02 04:51:44;;;;;;;14.50;13.20;;;;;;;10.66;94.94;99786.83;88553;1305;22063;-76
2022/10/02 04:54:04;;;;;;;13.80;12.60;;;;;;;10.68;94.89;99790.42;88566;1304;22051;-77
2022/10/02 04:56:55;;;;;;;13.50;12.20;;;;;;;10.69;94.80;99793.52;88813;1278;22057;-77
2022/10/02 04:59:31;;;;;;;13.50;12.10;;;;;;;10.68;94.84;99795.64;88690;1290;22015;-77
2022/10/02 05:01:53;;;;;;;13.40;12.00;;;;;;;10.70;94.89;99800.11;88617;1299;22765;-77
2022/10/02 05:04:12;;;;;;;13.20;12.00;;;;;;;10.71;95.06;99801.41;88559;1298;22565;-77
2022/10/02 05:06:32;;;;;;;14.40;12.90;;;;;;;10.72;95.02;99804.17;88566;1281;22041;-77
2022/10/02 05:09:03;;;;;;;13.50;12.20;;;;;;;10.73;95.16;99801.67;88545;1298;21975;-77
2022/10/02 05:11:20;;;;;;;12.00;11.00;;;;;;;10.74;95.29;99807.73;88819;1277;22050;-77
2022/10/02 05:13:41;;;;;;;13.00;11.90;;;;;;;10.76;95.22;99809.56;88295;1298;360127;-77
2022/10/02 05:15:59;;;;;;;12.30;11.20;;;;;;;10.77;95.28;99808.98;88565;1305;22066;-77
2022/10/02 05:18:24;;;;;;;16.70;11.50;;;;;;;10.79;95.40;99812.20;88730;1290;22207;-77
2022/10/02 05:21:00;;;;;;;11.80;10.60;;;;;;;10.80;95.32;99814.44;88578;1306;22077;-77
2022/10/02 05:23:21;;;;;;;11.80;10.80;;;;;;;10.81;95.36;99819.95;88556;1298;22068;-77
2022/10/02 05:25:45;;;;;;;11.10;10.10;;;;;;;10.83;95.44;99820.02;88491;1296;22753;-77
2022/10/02 05:28:31;;;;;;;11.40;10.20;;;;;;;10.85;95.36;99817.48;88808;1282;22237;-77
2022/10/02 05:30:40;;;;;;;11.60;10.50;;;;;;;10.87;95.49;99817.95;88450;1299;22095;-77
2022/10/02 05:33:05;;;;;;;10.80;10.00;;;;;;;10.90;95.53;99820.80;88675;1291;22021;-77
2022/10/02 05:35:30;;;;;;;10.80;9.60;;;;;;;10.92;95.51;99821.55;88556;1306;22049;-77
2022/10/02 05:37:46;;;;;;;11.00;10.00;;;;;;;10.94;95.51;99825.66;88795;1294;22043;-77
2022/10/02 05:39:55;;;;;;;10.00;9.20;;;;;;;10.95;95.42;99826.30;88766;1296;22061;-77
2022/10/02 05:42:06;;;;;;;10.80;9.90;;;;;;;10.97;95.60;99824.98;88813;1296;22040;-77
2022/10/02 05:44:17;;;;;;;9.70;8.90;;;;;;;10.98;95.46;99828.05;88753;1299;22610;-77
2022/10/02 05:46:24;;;;;;;10.40;9.50;;;;;;;11.00;95.45;99828.85;88493;1306;22088;-77
2022/10/02 05:48:34;;;;;;;11.50;10.50;;;;;;;11.01;95.55;99829.66;88797;1296;22043;-77
2022/10/02 05:50:39;;;;;;;9.90;9.10;;;;;;;11.02;95.53;99834.66;88743;1288;22059;-77
2022/10/02 05:52:53;;;;;;;10.10;9.30;;;;;;;11.03;95.52;99836.37;88813;1291;22044;-77
2022/10/02 05:55:02;;;;;;;11.30;10.30;;;;;;;11.04;95.44;99835.12;88807;1287;22047;-77
2022/10/02 05:57:13;;;;;;;10.60;9.60;;;;;;;11.06;95.59;99834.98;88566;1298;22054;-77
2022/10/02 05:59:25;;;;;;;9.50;8.70;;;;;;;11.08;95.55;99839.96;88822;1288;22068;-77
2022/10/02 06:01:33;;;;;;;9.10;8.40;;;;;;;11.09;95.60;99841.63;88811;1296;22584;-77
2022/10/02 06:03:42;;;;;;;10.00;9.00;;;;;;;11.10;95.59;99841.59;88813;1296;22041;-77
2022/10/02 06:05:54;;;;;;;10.10;9.40;;;;;;;11.11;95.62;99840.16;88585;1301;22094;-77
2022/10/02 06:08:02;;;;;;;9.30;8.60;;;;;;;11.12;95.78;99841.52;88763;1279;22710;-77
2022/10/02 06:10:11;;;;;;;9.30;8.50;;;;;;;11.15;95.86;99845.03;88844;1296;22028;-77
2022/10/02 06:12:25;;;;;;;;;;;;;;;11.18;95.90;99843.31;88573;1298;22448;-77
2022/10/02 06:14:33;;;;;;;9.10;8.30;;;;;;;11.19;96.06;99845.05;88794;1293;22016;-77
2022/10/02 06:16:43;;;;;;;9.30;8.60;;;;;;;11.24;96.32;99847.57;88526;1306;22099;-77
2022/10/02 06:18:50;;;;;;;9.90;9.00;;;;;;;11.26;95.98;99845.70;88787;1285;21970;-77
2022/10/02 06:20:58;;;;;;;9.70;8.60;;;;;;;11.27;95.94;99850.89;88825;1296;22013;-77
2022/10/02 06:23:07;;;;;;;10.20;9.30;;;;;;;11.29;95.98;99852.20;88568;1305;22717;-77
2022/10/02 06:25:16;;;;;;;10.20;9.20;;;;;;;11.30;95.84;99851.81;88563;1306;22049;-77
2022/10/02 06:27:30;;;;;;;10.00;9.00;;;;;;;11.31;95.93;99852.27;88809;1293;22048;-77
2022/10/02 06:29:38;;;;;;;9.60;8.80;;;;;;;11.36;96.10;99852.05;88738;1299;22083;-77
2022/10/02 06:31:47;;;;;;;10.10;9.10;;;;;;;11.43;96.21;99858.52;88564;1305;22681;-77
2022/10/02 06:33:54;;;;;;;9.00;8.20;;;;;;;11.50;96.26;99860.09;88544;1306;22078;-77
2022/10/02 06:36:25;;;;;;;10.30;9.40;;;;;;;11.53;96.16;99859.75;88555;1306;22173;-77
2022/10/02 06:39:03;;;;;;;9.20;8.30;;;;;;;11.57;96.16;99861.80;88530;1299;22669;-77
2022/10/02 06:41:13;;;;;;;8.40;7.60;;;;;;;11.67;96.31;99859.60;88565;1306;22105;-77
2022/10/02 06:43:29;;;;;;;8.70;7.70;;;;;;;11.79;96.84;99860.69;88537;1305;22126;-78
2022/10/02 06:45:39;;;;;;;7.90;7.30;;;;;;;11.89;96.62;99863.73;88806;1285;22094;-78
2022/10/02 06:48:04;;;;;;;8.10;6.40;;;;;;;11.92;96.37;99862.86;88734;1299;22075;-78
2022/10/02 06:50:26;;;;;;;7.10;6.40;;;;;;;11.94;96.12;99868.88;88802;1296;22023;-78
2022/10/02 06:52:38;;;;;;;5.90;5.50;;;;;;;11.96;95.78;99873.16;88800;1283;22064;-78
2022/10/02 06:54:57;;;;;;;5.60;5.10;;;;;;;11.96;95.70;99872.80;88567;1299;22240;-78
2022/10/02 06:57:32;;;;;;;6.50;5.70;;;;;;;11.98;95.63;99874.46;88778;1296;22656;-78
2022/10/02 06:59:48;;;;;;;7.00;5.00;;;;;;;11.98;95.47;99877.41;88777;1283;22639;-77
2022/10/02 07:01:59;;;;;;;6.20;5.70;;;;;;;11.99;95.37;99878.27;88796;1291;22020;-77
2022/10/02 07:04:41;;;;;;;5.90;5.30;;;;;;;11.99;95.31;99877.69;88835;1285;22016;-77
2022/10/02 07:06:56;;;;;;;6.10;5.60;;;;;;;11.99;95.22;99882.92;88759;1294;22146;-77
2022/10/02 07:09:19;;;;;;;9.30;6.40;;;;;;;11.99;94.98;99881.77;88574;1298;22136;-77
2022/10/02 07:11:31;;;;;;;9.30;6.50;;;;;;;11.96;94.86;99886.23;88563;1306;22103;-78
2022/10/02 07:14:09;;;;;;;7.60;5.80;;;;;;;11.97;94.88;99889.19;88740;1299;22646;-78
2022/10/02 07:16:40;;;;;;;6.70;6.10;;;;;;;11.96;94.78;99887.48;88523;1306;22792;-77
2022/10/02 07:19:20;;;;;;;10.80;7.10;;;;;;;12.00;94.88;99893.23;88811;1294;22035;-77
2022/10/02 07:21:32;;;;;;;7.70;6.50;;;;;;;12.04;94.99;99898.45;88557;1302;22023;-77
2022/10/02 07:23:51;;;;;;;7.10;6.50;;;;;;;12.07;94.98;99902.46;88555;1302;22083;-77
2022/10/02 07:26:06;;;;;;;7.30;6.50;;;;;;;12.11;95.01;99906.10;88493;1298;22136;-77
2022/10/02 07:28:17;;;;;;;7.20;6.50;;;;;;;12.14;95.05;99903.13;88797;1284;22004;-77
2022/10/02 07:30:22;;;;;;;7.30;6.60;;;;;;;12.19;95.01;99904.48;88558;1306;22678;-77
2022/10/02 07:32:48;;;;;;;7.00;6.40;;;;;;;12.23;95.09;99908.11;88554;1299;22099;-77
2022/10/02 07:34:59;;;;;;;10.50;7.50;;;;;;;12.28;94.94;99906.80;88553;1302;22117;-77
2022/10/02 07:37:15;;;;;;;7.40;6.50;;;;;;;12.32;94.81;99907.30;88789;1281;22086;-77
2022/10/02 07:39:34;;;;;;;8.70;6.80;;;;;;;12.35;94.74;99910.24;88796;1296;22037;-77
2022/10/02 07:42:01;;;;;;;12.10;6.10;;;;;;;12.38;94.55;99908.90;88561;1298;22666;-77
2022/10/02 07:44:15;;;;;;;11.20;5.90;;;;;;;12.44;94.59;99910.67;88747;1299;22083;-77
2022/10/02 07:46:24;;;;;;;7.10;5.00;;;;;;;12.49;94.48;99913.05;88565;1306;22083;-77
2022/10/02 07:48:47;;;;;;;8.30;5.30;;;;;;;12.51;94.22;99911.17;88828;1291;22078;-77
2022/10/02 07:51:45;;;;;;;6.40;4.90;;;;;;;12.55;94.13;99915.14;88827;1284;22046;-76
2022/10/02 07:53:39;;;;;;;6.30;4.60;;;;;;;12.57;93.90;99910.48;88811;1282;22054;-76
2022/10/02 07:55:48;;;;;;;6.50;3.90;;;;;;;12.59;93.73;99916.16;88714;1299;22067;-77
2022/10/02 07:58:06;;;;;;;5.50;4.40;;;;;;;12.61;93.50;99918.84;88822;1282;22639;-77
2022/10/02 08:00:16;;;;;;;4.30;3.50;;;;;;;12.62;93.16;99916.90;88739;1299;22665;-77
2022/10/02 08:02:42;;;;;;;12.00;5.10;;;;;;;12.64;93.22;99914.34;88822;1296;22717;-77
2022/10/02 08:04:51;;;;;;;5.80;3.80;;;;;;;12.65;93.02;99915.14;88570;1298;22058;-75
2022/10/02 08:07:03;;;;;;;5.70;3.40;;;;;;;12.65;92.94;99916.70;88792;1285;22090;-77
2022/10/02 08:09:13;;;;;;;4.70;4.10;;;;;;;12.66;92.79;99920.54;88739;1298;22094;-77
2022/10/02 08:11:20;;;;;;;;;;;;;;;12.67;92.76;99916.65;88749;1299;22383;-77
2022/10/02 08:13:28;;;;;;;6.80;3.20;;;;;;;12.64;92.49;99923.95;88800;1296;22031;-77
2022/10/02 08:15:36;;;;;;;3.90;2.70;;;;;;;12.63;92.17;99925.40;88812;1296;22665;-77
2022/10/02 08:17:48;;;;;;;5.10;3.10;;;;;;;12.63;92.29;99921.70;88799;1282;22016;-75
2022/10/02 08:19:54;;;;;;;4.40;2.50;;;;;;;12.65;92.18;99921.62;88580;1299;22700;-76
2022/10/02 08:22:07;;;;;;;3.20;2.50;;;;;;;12.67;92.12;99929.42;88820;1296;22071;-78
2022/10/02 08:24:21;;;;;;;4.30;2.70;;;;;;;12.68;92.05;99924.09;88754;1299;22048;-78
2022/10/02 08:26:29;;;;;;;4.80;2.60;;;;;;;12.69;92.20;99929.14;88564;1306;22046;-78
2022/10/02 08:28:41;;;;;;;3.50;2.60;;;;;;;12.73;92.26;99930.84;88801;1296;22080;-77
2022/10/02 08:30:49;;;;;;;4.20;2.40;;;;;;;12.75;91.97;99931.38;88569;1291;22114;-77
2022/10/02 08:36:23;;;;;;;3.70;2.50;;;;;;;12.78;91.77;99926.84;88796;1296;23062;-76
2022/10/02 08:38:48;;;;;;;5.50;2.20;;;;;;;12.83;91.66;99926.39;88723;1299;22738;-77
2022/10/02 08:41:28;;;;;;;3.60;2.20;;;;;;;12.96;92.03;99929.77;88444;1297;22101;-77
2022/10/02 08:43:54;;;;;;;3.10;1.90;;;;;;;13.11;92.07;99924.67;88512;1306;22111;-77
2022/10/02 08:46:23;;;;;;;6.30;2.40;;;;;;;13.23;91.71;99929.68;88780;1292;22089;-77
2022/10/02 08:49:14;;;;;;;8.90;2.10;;;;;;;13.34;91.11;99926.78;88721;1299;22093;-77
2022/10/02 08:52:09;;;;;;;4.80;2.20;;;;;;;13.50;91.15;99928.32;88764;1290;22664;-76
2022/10/02 08:55:11;;;;;;;5.70;2.30;;;;;;;13.78;91.44;99931.27;88624;1299;22680;-76
2022/10/02 08:58:02;;;;;;;5.60;2.10;;;;;;;14.06;90.90;99931.70;88755;1300;22158;-77
2022/10/02 09:00:13;;;;;;;10.30;2.20;;;;;;;14.23;89.99;99932.63;88751;1299;22613;-74
2022/10/02 09:03:27;;;;;;;5.90;2.40;;;;;;;14.36;89.48;99933.09;88709;1299;22076;-75
2022/10/02 09:06:29;;;;;;;7.10;2.80;;;;;;;14.45;87.89;99925.86;88515;1298;22075;-74
2022/10/02 09:09:14;;;;;;;4.60;1.90;;;;;;;14.60;87.66;99927.27;88640;1299;22001;-74
2022/10/02 09:12:02;;;;;;;5.40;2.20;;;;;;;14.72;86.89;99921.38;88414;1296;22458;-77
2022/10/02 09:14:47;;;;;;;6.90;1.80;;;;;;;14.84;85.96;99916.48;88499;1306;22068;-75
2022/10/02 09:17:19;;;;;;;7.00;2.20;;;;;;;14.83;85.02;99917.77;88744;1299;22052;-74
2022/10/02 09:19:41;;;;;;;5.60;2.40;;;;;;;14.80;84.16;99919.52;88496;1308;22063;-75
2022/10/02 09:21:54;;;;;;;6.20;2.60;;;;;;;14.76;83.82;99915.76;88635;1299;22056;-75
2022/10/02 09:24:58;;;;;;;7.10;2.70;;;;;;;14.75;83.32;99915.95;88764;1295;22017;-76
2022/10/02 09:27:46;;;;;;;4.50;2.00;;;;;;;14.75;83.14;99915.80;88795;1294;22694;-74
2022/10/02 09:30:21;;;;;;;6.70;2.40;;;;;;;14.78;83.73;99923.13;88793;1294;22020;-74
2022/10/02 09:33:34;;;;;;;7.60;2.30;;;;;;;14.85;83.56;99918.70;88802;1300;22136;-74
2022/10/02 09:36:22;;;;;;;5.30;3.00;;;;;;;15.03;83.34;99919.28;88643;1302;22106;-75
2022/10/02 09:38:56;;;;;;;5.70;2.40;;;;;;;15.49;83.95;99917.00;88534;1304;22089;-75
2022/10/02 09:41:48;;;;;;;8.10;3.00;;;;;;;16.33;84.56;99919.67;88496;1307;22042;-75
2022/10/02 09:44:11;;;;;;;5.40;1.90;;;;;;;17.08;81.77;99914.38;88518;1306;22092;-74
2022/10/02 09:46:46;;;;;;;6.00;1.80;;;;;;;17.19;78.88;99914.79;88488;1307;22071;-74
2022/10/02 09:49:30;;;;;;;4.40;1.60;;;;;;;17.33;78.24;99914.86;88775;1302;22659;-74
2022/10/02 09:52:36;;;;;;;5.90;2.10;;;;;;;17.48;76.91;99904.76;88709;1298;22829;-76
2022/10/02 09:55:15;;;;;;;4.50;1.90;;;;;;;17.60;76.42;99903.34;88503;1310;22064;-76
2022/10/02 09:58:00;;;;;;;3.90;1.60;;;;;;;17.83;76.41;99898.64;88509;1310;22028;-76
2022/10/02 10:00:16;;;;;;;7.10;1.80;;;;;;;17.93;74.38;99892.73;88561;1291;22142;-76
2022/10/02 10:03:17;;;;;;;5.40;2.30;;;;;;;17.87;73.03;99893.60;88495;1301;22107;-77
2022/10/02 10:06:02;;;;;;;3.90;1.40;;;;;;;17.72;72.29;99895.02;88491;1309;22670;-77
2022/10/02 10:08:55;;;;;;;4.90;1.90;;;;;;;17.59;71.21;99890.52;88779;1297;22064;-77
2022/10/02 10:11:28;;;;;;;6.20;1.90;;;;;;;17.54;72.39;99886.13;88688;1296;22029;-77
2022/10/02 10:14:36;;;;;;;5.60;1.90;;;;;;;17.63;72.31;99887.10;88513;1304;22100;-76
2022/10/02 10:17:18;;;;;;;6.20;2.00;;;;;;;17.83;73.03;99879.92;88801;1289;22698;-77
2022/10/02 10:20:21;;;;;;;4.90;1.20;;;;;;;17.98;70.91;99878.44;88789;1297;22099;-77
2022/10/02 10:23:07;;;;;;;3.80;1.70;;;;;;;17.89;67.68;99886.20;88771;1285;22072;-74
2022/10/02 10:26:15;;;;;;;3.30;0.80;;;;;;;17.87;67.24;99879.81;88792;1296;22168;-73
2022/10/02 10:28:59;;;;;;;5.10;1.90;;;;;;;17.88;67.45;99873.20;88503;1299;22069;-74
2022/10/02 10:31:50;;;;;;;2.10;1.30;;;;;;;18.00;67.34;99872.23;88777;1296;22072;-75
2022/10/02 10:34:55;;;;;;;3.50;1.20;;;;;;;18.08;65.72;99873.44;88770;1297;22078;-76
2022/10/02 10:40:04;;;;;;;2.70;1.20;;;;;;;17.94;65.04;99875.94;88576;1300;22183;-77
2022/10/02 10:42:50;;;;;;;7.70;2.30;;;;;;;17.93;65.49;99872.63;88517;1306;22046;-77
2022/10/02 10:45:19;;;;;;;3.70;1.20;;;;;;;17.97;66.17;99872.47;88775;1284;22051;-77
2022/10/02 10:47:35;;;;;;;2.50;1.20;;;;;;;17.98;65.54;99872.40;88654;1305;22742;-77
2022/10/02 10:50:34;;;;;;;4.10;1.40;;;;;;;17.85;64.93;99879.11;88634;1299;22744;-77
2022/10/02 10:53:15;;;;;;;4.80;1.60;;;;;;;17.52;63.83;99885.56;88779;1285;22047;-77
2022/10/02 10:55:38;;;;;;;8.00;1.20;;;;;;;17.10;65.00;99893.25;88777;1291;22102;-77